Valewood, Mississippi
Current Conditions -  °F | °C
As of 5:53 PM on Monday 20 Oct 2014 (Local Time) from KGLH Reporting Station
Clear Clear  
Wind Chill: 71°   Ceiling: Unl
Heat Index: 71°   Visibility: 10mi
Dew Point: 50°   Wind: 3mph
Humidity: 47%   Direction: 260°W
Pressure: 30.02"   Gusts: NA
Location:  33.0379°N, 90.9708°W
Report Text: KGLH 202253Z AUTO 26003KT 10SM CLR 22/10 A3002 RMK AO2 SLP171 T02170100
Loading
Personal Weather Stations






























Interactive Weather Map
Tropical Storm Tracking
New forecast layout! Learn more

10-Day Weather Forecast

Advertisements
Track Severe Weather on mobile